sensor_id;sensor_type;location;lat;lon;timestamp;pressure;altitude;pressure_sealevel;temperature;humidity
6938;BME280;40040;42.706;23.372;2023-02-28T00:00:51;145749.91;;;6.37;100.00
6938;BME280;40040;42.706;23.372;2023-02-28T00:03:35;145752.34;;;6.38;100.00
6938;BME280;40040;42.706;23.372;2023-02-28T00:06:20;145760.94;;;6.42;100.00
6938;BME280;40040;42.706;23.372;2023-02-28T00:09:05;145767.13;;;6.44;100.00
6938;BME280;40040;42.706;23.372;2023-02-28T00:11:50;145762.19;;;6.42;100.00
6938;BME280;40040;42.706;23.372;2023-02-28T00:14:34;145752.34;;;6.38;100.00
6938;BME280;40040;42.706;23.372;2023-02-28T00:17:18;145676.13;;;6.07;100.00
6938;BME280;40040;42.706;23.372;2023-02-28T00:20:05;145715.47;;;6.23;100.00
6938;BME280;40040;42.706;23.372;2023-02-28T00:22:50;145747.41;;;6.36;100.00
6938;BME280;40040;42.706;23.372;2023-02-28T00:25:36;145743.75;;;6.35;100.00
6938;BME280;40040;42.706;23.372;2023-02-28T00:28:20;145678.63;;;6.08;100.00
6938;BME280;40040;42.706;23.372;2023-02-28T00:31:05;145733.94;;;6.31;100.00
6938;BME280;40040;42.706;23.372;2023-02-28T00:33:49;145715.47;;;6.23;100.00
6938;BME280;40040;42.706;23.372;2023-02-28T00:36:34;145746.22;;;6.36;100.00
6938;BME280;40040;42.706;23.372;2023-02-28T00:39:18;145759.75;;;6.41;100.00
6938;BME280;40040;42.706;23.372;2023-02-28T00:42:05;145792.94;;;6.55;100.00
6938;BME280;40040;42.706;23.372;2023-02-28T00:44:50;145759.75;;;6.41;100.00
6938;BME280;40040;42.706;23.372;2023-02-28T00:47:34;145828.59;;;6.69;100.00
6938;BME280;40040;42.706;23.372;2023-02-28T00:50:19;145808.94;;;6.61;100.00
6938;BME280;40040;42.706;23.372;2023-02-28T00:52:47;145759.75;;;6.41;100.00
6938;BME280;40040;42.706;23.372;2023-02-28T00:55:14;145845.81;;;6.76;100.00
6938;BME280;40040;42.706;23.372;2023-02-28T00:57:43;145823.72;;;6.67;100.00
6938;BME280;40040;42.706;23.372;2023-02-28T01:00:11;145796.63;;;6.56;100.00
6938;BME280;40040;42.706;23.372;2023-02-28T01:02:38;145821.22;;;6.66;100.00
6938;BME280;40040;42.706;23.372;2023-02-28T01:05:06;145792.94;;;6.55;100.00
6938;BME280;40040;42.706;23.372;2023-02-28T01:07:33;145754.84;;;6.39;100.00
6938;BME280;40040;42.706;23.372;2023-02-28T01:09:59;145753.59;;;6.39;100.00
6938;BME280;40040;42.706;23.372;2023-02-28T01:12:27;145776.97;;;6.48;100.00
6938;BME280;40040;42.706;23.372;2023-02-28T01:14:55;145794.19;;;6.55;100.00
6938;BME280;40040;42.706;23.372;2023-02-28T01:17:22;145780.66;;;6.50;100.00
6938;BME280;40040;42.706;23.372;2023-02-28T01:19:49;145757.28;;;6.40;100.00
6938;BME280;40040;42.706;23.372;2023-02-28T01:22:16;145688.41;;;6.12;100.00
6938;BME280;40040;42.706;23.372;2023-02-28T01:24:43;145683.50;;;6.10;100.00
6938;BME280;40040;42.706;23.372;2023-02-28T01:27:10;145660.16;;;6.01;100.00
6938;BME280;40040;42.706;23.372;2023-02-28T01:29:36;145630.66;;;5.89;100.00
6938;BME280;40040;42.706;23.372;2023-02-28T01:32:05;145730.25;;;6.29;100.00
6938;BME280;40040;42.706;23.372;2023-02-28T01:34:32;145729.00;;;6.29;100.00
6938;BME280;40040;42.706;23.372;2023-02-28T01:36:59;145720.41;;;6.25;100.00
6938;BME280;40040;42.706;23.372;2023-02-28T01:39:26;145722.84;;;6.26;100.00
6938;BME280;40040;42.706;23.372;2023-02-28T01:41:55;145636.78;;;5.91;100.00
6938;BME280;40040;42.706;23.372;2023-02-28T01:44:55;145732.69;;;6.30;100.00
6938;BME280;40040;42.706;23.372;2023-02-28T01:47:26;145663.84;;;6.02;100.00
6938;BME280;40040;42.706;23.372;2023-02-28T01:49:54;145634.34;;;5.90;100.00
6938;BME280;40040;42.706;23.372;2023-02-28T01:52:21;145683.50;;;6.10;100.00
6938;BME280;40040;42.706;23.372;2023-02-28T01:54:52;145721.66;;;6.26;100.00
6938;BME280;40040;42.706;23.372;2023-02-28T01:57:23;145716.72;;;6.24;100.00
6938;BME280;40040;42.706;23.372;2023-02-28T01:59:54;145708.13;;;6.20;100.00
6938;BME280;40040;42.706;23.372;2023-02-28T02:02:26;145673.69;;;6.06;100.00
6938;BME280;40040;42.706;23.372;2023-02-28T02:04:56;145646.63;;;5.95;100.00
6938;BME280;40040;42.706;23.372;2023-02-28T02:07:29;145640.50;;;5.93;100.00
6938;BME280;40040;42.706;23.372;2023-02-28T02:10:02;145682.31;;;6.10;100.00
6938;BME280;40040;42.706;23.372;2023-02-28T02:12:39;145636.78;;;5.91;100.00
6938;BME280;40040;42.706;23.372;2023-02-28T02:15:12;145681.06;;;6.09;100.00
6938;BME280;40040;42.706;23.372;2023-02-28T02:17:44;145667.53;;;6.04;100.00
6938;BME280;40040;42.706;23.372;2023-02-28T02:23:43;145688.41;;;6.12;100.00
6938;BME280;40040;42.706;23.372;2023-02-28T02:26:28;145684.75;;;6.11;100.00
6938;BME280;40040;42.706;23.372;2023-02-28T02:29:33;145676.13;;;6.07;100.00
6938;BME280;40040;42.706;23.372;2023-02-28T02:32:28;145639.28;;;5.92;100.00
6938;BME280;40040;42.706;23.372;2023-02-28T02:35:03;145639.28;;;5.92;100.00
6938;BME280;40040;42.706;23.372;2023-02-28T02:37:38;145634.34;;;5.90;100.00
6938;BME280;40040;42.706;23.372;2023-02-28T02:40:12;145633.09;;;5.90;100.00
6938;BME280;40040;42.706;23.372;2023-02-28T02:42:45;145604.81;;;5.78;100.00
6938;BME280;40040;42.706;23.372;2023-02-28T02:45:18;145642.94;;;5.94;100.00
6938;BME280;40040;42.706;23.372;2023-02-28T02:47:49;145654.00;;;5.98;100.00
6938;BME280;40040;42.706;23.372;2023-02-28T02:50:21;145649.13;;;5.96;100.00
6938;BME280;40040;42.706;23.372;2023-02-28T02:52:53;145630.66;;;5.89;100.00
6938;BME280;40040;42.706;23.372;2023-02-28T02:55:23;145612.16;;;5.81;100.00
6938;BME280;40040;42.706;23.372;2023-02-28T02:57:52;145597.44;;;5.75;100.00
6938;BME280;40040;42.706;23.372;2023-02-28T03:00:23;145634.34;;;5.90;100.00
6938;BME280;40040;42.706;23.372;2023-02-28T03:02:52;145606.03;;;5.79;100.00
6938;BME280;40040;42.706;23.372;2023-02-28T03:05:26;145614.66;;;5.82;100.00
6938;BME280;40040;42.706;23.372;2023-02-28T03:07:53;145618.38;;;5.84;100.00
6938;BME280;40040;42.706;23.372;2023-02-28T03:10:42;145614.66;;;5.82;100.00
6938;BME280;40040;42.706;23.372;2023-02-28T03:13:24;145506.50;;;5.38;100.00
6938;BME280;40040;42.706;23.372;2023-02-28T03:16:09;145549.50;;;5.55;100.00
6938;BME280;40040;42.706;23.372;2023-02-28T03:18:44;145535.97;;;5.50;100.00
6938;BME280;40040;42.706;23.372;2023-02-28T03:21:23;145592.53;;;5.73;100.00
6938;BME280;40040;42.706;23.372;2023-02-28T03:23:58;145607.25;;;5.79;100.00
6938;BME280;40040;42.706;23.372;2023-02-28T03:26:29;145617.13;;;5.83;100.00
6938;BME280;40040;42.706;23.372;2023-02-28T03:29:03;145658.91;;;6.00;100.00
6938;BME280;40040;42.706;23.372;2023-02-28T03:31:37;145662.59;;;6.02;100.00
6938;BME280;40040;42.706;23.372;2023-02-28T03:34:08;145668.78;;;6.04;100.00
6938;BME280;40040;42.706;23.372;2023-02-28T03:36:41;145663.84;;;6.02;100.00
6938;BME280;40040;42.706;23.372;2023-02-28T03:39:13;145658.91;;;6.00;100.00
6938;BME280;40040;42.706;23.372;2023-02-28T03:41:43;145646.63;;;5.95;100.00
6938;BME280;40040;42.706;23.372;2023-02-28T03:44:16;145622.06;;;5.85;100.00
6938;BME280;40040;42.706;23.372;2023-02-28T03:46:48;145619.59;;;5.84;100.00
6938;BME280;40040;42.706;23.372;2023-02-28T03:49:20;145614.66;;;5.82;100.00
6938;BME280;40040;42.706;23.372;2023-02-28T03:51:51;145629.44;;;5.88;100.00
6938;BME280;40040;42.706;23.372;2023-02-28T03:54:22;145630.66;;;5.89;100.00
6938;BME280;40040;42.706;23.372;2023-02-28T03:56:56;145610.94;;;5.81;100.00
6938;BME280;40040;42.706;23.372;2023-02-28T03:59:28;145641.72;;;5.93;100.00
6938;BME280;40040;42.706;23.372;2023-02-28T04:01:57;145612.16;;;5.81;100.00
6938;BME280;40040;42.706;23.372;2023-02-28T04:04:24;145658.91;;;6.00;100.00
6938;BME280;40040;42.706;23.372;2023-02-28T04:06:53;145660.16;;;6.01;100.00
6938;BME280;40040;42.706;23.372;2023-02-28T04:09:27;145700.69;;;6.17;100.00
6938;BME280;40040;42.706;23.372;2023-02-28T04:11:54;145722.84;;;6.26;100.00
6938;BME280;40040;42.706;23.372;2023-02-28T04:14:22;145732.69;;;6.30;100.00
6938;BME280;40040;42.706;23.372;2023-02-28T04:16:48;145703.19;;;6.18;100.00
6938;BME280;40040;42.706;23.372;2023-02-28T04:19:16;145725.31;;;6.27;100.00
6938;BME280;40040;42.706;23.372;2023-02-28T04:21:45;145658.91;;;6.00;100.00
6938;BME280;40040;42.706;23.372;2023-02-28T04:24:16;145727.78;;;6.28;100.00
6938;BME280;40040;42.706;23.372;2023-02-28T04:26:44;145726.53;;;6.28;100.00
6938;BME280;40040;42.706;23.372;2023-02-28T04:29:14;145736.38;;;6.32;100.00
6938;BME280;40040;42.706;23.372;2023-02-28T04:31:44;145741.31;;;6.34;100.00
6938;BME280;40040;42.706;23.372;2023-02-28T04:34:10;145735.13;;;6.31;100.00
6938;BME280;40040;42.706;23.372;2023-02-28T04:36:37;145732.69;;;6.30;100.00
6938;BME280;40040;42.706;23.372;2023-02-28T04:39:04;145724.09;;;6.27;100.00
6938;BME280;40040;42.706;23.372;2023-02-28T04:41:32;145716.72;;;6.24;100.00
6938;BME280;40040;42.706;23.372;2023-02-28T04:43:59;145713.03;;;6.22;100.00
6938;BME280;40040;42.706;23.372;2023-02-28T04:46:26;145660.16;;;6.01;100.00
6938;BME280;40040;42.706;23.372;2023-02-28T04:48:53;145704.44;;;6.19;100.00
6938;BME280;40040;42.706;23.372;2023-02-28T04:51:20;145646.63;;;5.95;100.00
6938;BME280;40040;42.706;23.372;2023-02-28T04:53:47;145693.34;;;6.14;100.00
6938;BME280;40040;42.706;23.372;2023-02-28T04:56:16;145665.09;;;6.03;100.00
6938;BME280;40040;42.706;23.372;2023-02-28T04:58:45;145662.59;;;6.02;100.00
6938;BME280;40040;42.706;23.372;2023-02-28T05:01:20;145647.88;;;5.96;100.00
6938;BME280;40040;42.706;23.372;2023-02-28T05:03:48;145622.06;;;5.85;100.00
6938;BME280;40040;42.706;23.372;2023-02-28T05:06:15;145651.56;;;5.97;100.00
6938;BME280;40040;42.706;23.372;2023-02-28T05:08:43;145645.38;;;5.95;100.00
6938;BME280;40040;42.706;23.372;2023-02-28T05:11:15;145671.22;;;6.05;100.00
6938;BME280;40040;42.706;23.372;2023-02-28T05:13:42;145673.69;;;6.06;100.00
6938;BME280;40040;42.706;23.372;2023-02-28T05:16:10;145679.81;;;6.09;100.00
6938;BME280;40040;42.706;23.372;2023-02-28T05:18:37;145639.28;;;5.92;100.00
6938;BME280;40040;42.706;23.372;2023-02-28T05:21:04;145649.13;;;5.96;100.00
6938;BME280;40040;42.706;23.372;2023-02-28T05:23:31;145592.53;;;5.73;100.00
6938;BME280;40040;42.706;23.372;2023-02-28T05:25:58;145631.91;;;5.89;100.00
6938;BME280;40040;42.706;23.372;2023-02-28T05:28:25;145603.56;;;5.78;100.00
6938;BME280;40040;42.706;23.372;2023-02-28T05:30:54;145521.28;;;5.44;100.00
6938;BME280;40040;42.706;23.372;2023-02-28T05:33:22;145582.69;;;5.69;100.00
6938;BME280;40040;42.706;23.372;2023-02-28T05:35:49;145571.63;;;5.64;100.00
6938;BME280;40040;42.706;23.372;2023-02-28T05:38:16;145560.56;;;5.60;100.00
6938;BME280;40040;42.706;23.372;2023-02-28T05:40:43;145550.75;;;5.56;100.00
6938;BME280;40040;42.706;23.372;2023-02-28T05:43:11;145545.84;;;5.54;100.00
6938;BME280;40040;42.706;23.372;2023-02-28T05:45:38;145597.44;;;5.75;100.00
6938;BME280;40040;42.706;23.372;2023-02-28T05:48:05;145592.53;;;5.73;100.00
6938;BME280;40040;42.706;23.372;2023-02-28T05:50:33;145592.53;;;5.73;100.00
6938;BME280;40040;42.706;23.372;2023-02-28T05:53:00;145602.31;;;5.77;100.00
6938;BME280;40040;42.706;23.372;2023-02-28T05:55:27;145564.22;;;5.61;100.00
6938;BME280;40040;42.706;23.372;2023-02-28T05:57:54;145501.59;;;5.36;100.00
6938;BME280;40040;42.706;23.372;2023-02-28T06:00:21;145511.44;;;5.40;100.00
6938;BME280;40040;42.706;23.372;2023-02-28T06:02:48;145539.66;;;5.51;100.00
6938;BME280;40040;42.706;23.372;2023-02-28T06:05:17;145575.31;;;5.66;100.00
6938;BME280;40040;42.706;23.372;2023-02-28T06:07:46;145572.84;;;5.65;100.00
6938;BME280;40040;42.706;23.372;2023-02-28T06:10:13;145567.97;;;5.63;100.00
6938;BME280;40040;42.706;23.372;2023-02-28T06:12:40;145601.13;;;5.77;100.00
6938;BME280;40040;42.706;23.372;2023-02-28T06:15:11;145576.56;;;5.66;100.00
6938;BME280;40040;42.706;23.372;2023-02-28T06:17:38;145609.72;;;5.80;100.00
6938;BME280;40040;42.706;23.372;2023-02-28T06:20:07;145614.66;;;5.82;100.00
6938;BME280;40040;42.706;23.372;2023-02-28T06:22:35;145608.47;;;5.80;100.00
6938;BME280;40040;42.706;23.372;2023-02-28T06:25:04;145617.13;;;5.83;100.00
6938;BME280;40040;42.706;23.372;2023-02-28T06:27:31;145652.81;;;5.98;100.00
6938;BME280;40040;42.706;23.372;2023-02-28T06:29:59;145650.31;;;5.97;100.00
6938;BME280;40040;42.706;23.372;2023-02-28T06:32:26;145704.44;;;6.19;100.00
6938;BME280;40040;42.706;23.372;2023-02-28T06:34:53;145676.13;;;6.07;100.00
6938;BME280;40040;42.706;23.372;2023-02-28T06:37:20;145720.41;;;6.25;100.00
6938;BME280;40040;42.706;23.372;2023-02-28T06:39:47;145730.25;;;6.29;100.00
6938;BME280;40040;42.706;23.372;2023-02-28T06:42:15;145742.53;;;6.34;100.00
6938;BME280;40040;42.706;23.372;2023-02-28T06:44:42;145671.22;;;6.05;100.00
6938;BME280;40040;42.706;23.372;2023-02-28T06:47:09;145716.72;;;6.24;100.00
6938;BME280;40040;42.706;23.372;2023-02-28T06:49:36;145688.41;;;6.12;100.00
6938;BME280;40040;42.706;23.372;2023-02-28T06:52:04;145692.09;;;6.14;100.00
6938;BME280;40040;42.706;23.372;2023-02-28T06:54:31;145725.31;;;6.27;100.00
6938;BME280;40040;42.706;23.372;2023-02-28T06:56:58;145744.97;;;6.35;100.00
6938;BME280;40040;42.706;23.372;2023-02-28T06:59:26;145742.53;;;6.34;100.00
6938;BME280;40040;42.706;23.372;2023-02-28T07:01:53;145726.53;;;6.28;100.00
6938;BME280;40040;42.706;23.372;2023-02-28T07:04:20;145779.41;;;6.49;100.00
6938;BME280;40040;42.706;23.372;2023-02-28T07:06:47;145796.63;;;6.56;100.00
6938;BME280;40040;42.706;23.372;2023-02-28T07:09:14;145749.91;;;6.37;100.00
6938;BME280;40040;42.706;23.372;2023-02-28T07:11:41;145802.81;;;6.59;100.00
6938;BME280;40040;42.706;23.372;2023-02-28T07:14:09;145811.41;;;6.62;100.00
6938;BME280;40040;42.706;23.372;2023-02-28T07:16:37;145827.38;;;6.69;100.00
6938;BME280;40040;42.706;23.372;2023-02-28T07:19:04;145834.75;;;6.72;100.00
6938;BME280;40040;42.706;23.372;2023-02-28T07:21:31;145837.19;;;6.73;100.00
6938;BME280;40040;42.706;23.372;2023-02-28T07:23:58;145832.31;;;6.71;100.00
6938;BME280;40040;42.706;23.372;2023-02-28T07:26:25;145831.06;;;6.70;100.00
6938;BME280;40040;42.706;23.372;2023-02-28T07:28:51;145892.59;;;6.96;100.00
6938;BME280;40040;42.706;23.372;2023-02-28T07:31:19;145827.38;;;6.69;100.00
6938;BME280;40040;42.706;23.372;2023-02-28T07:33:47;145881.50;;;6.91;100.00
6938;BME280;40040;42.706;23.372;2023-02-28T07:36:16;145923.31;;;7.08;100.00
6938;BME280;40040;42.706;23.372;2023-02-28T07:38:45;145888.88;;;6.94;100.00
6938;BME280;40040;42.706;23.372;2023-02-28T07:41:13;145940.53;;;7.15;100.00
6938;BME280;40040;42.706;23.372;2023-02-28T07:43:40;145973.75;;;7.29;100.00
6938;BME280;40040;42.706;23.372;2023-02-28T07:46:09;145965.19;;;7.25;100.00
6938;BME280;40040;42.706;23.372;2023-02-28T07:48:36;145986.09;;;7.34;100.00
6938;BME280;40040;42.706;23.372;2023-02-28T07:51:04;145997.16;;;7.38;100.00
6938;BME280;40040;42.706;23.372;2023-02-28T07:53:31;145994.72;;;7.37;100.00
6938;BME280;40040;42.706;23.372;2023-02-28T07:56:00;146025.44;;;7.50;100.00
6938;BME280;40040;42.706;23.372;2023-02-28T07:58:27;146047.59;;;7.59;100.00
6938;BME280;40040;42.706;23.372;2023-02-28T08:00:55;146004.53;;;7.41;100.00
6938;BME280;40040;42.706;23.372;2023-02-28T08:03:23;146046.34;;;7.58;100.00
6938;BME280;40040;42.706;23.372;2023-02-28T08:05:50;146085.75;;;7.74;100.00
6938;BME280;40040;42.706;23.372;2023-02-28T08:08:19;146079.63;;;7.72;100.00
6938;BME280;40040;42.706;23.372;2023-02-28T08:10:46;146116.53;;;7.87;100.00
6938;BME280;40040;42.706;23.372;2023-02-28T08:13:12;146148.56;;;8.00;100.00
6938;BME280;40040;42.706;23.372;2023-02-28T08:15:40;146199.03;;;8.21;100.00
6938;BME280;40040;42.706;23.372;2023-02-28T08:18:07;146212.66;;;8.26;100.00
6938;BME280;40040;42.706;23.372;2023-02-28T08:20:34;146215.09;;;8.27;100.00
6938;BME280;40040;42.706;23.372;2023-02-28T08:23:01;146271.75;;;8.50;100.00
6938;BME280;40040;42.706;23.372;2023-02-28T08:25:29;146316.06;;;8.68;100.00
6938;BME280;40040;42.706;23.372;2023-02-28T08:27:56;146323.50;;;8.71;100.00
6938;BME280;40040;42.706;23.372;2023-02-28T08:30:23;146365.38;;;8.88;100.00
6938;BME280;40040;42.706;23.372;2023-02-28T08:32:49;146341.94;;;8.79;100.00
6938;BME280;40040;42.706;23.372;2023-02-28T08:35:17;146419.56;;;9.10;100.00
6938;BME280;40040;42.706;23.372;2023-02-28T08:37:43;146446.69;;;9.22;100.00
6938;BME280;40040;42.706;23.372;2023-02-28T08:40:11;146439.31;;;9.19;100.00
6938;BME280;40040;42.706;23.372;2023-02-28T08:42:44;146491.03;;;9.40;100.00
6938;BME280;40040;42.706;23.372;2023-02-28T08:45:12;146431.91;;;9.16;100.00
6938;BME280;40040;42.706;23.372;2023-02-28T08:47:39;146515.72;;;9.50;100.00
6938;BME280;40040;42.706;23.372;2023-02-28T08:50:06;146466.41;;;9.30;100.00
6938;BME280;40040;42.706;23.372;2023-02-28T08:52:33;146541.63;;;9.60;100.00
6938;BME280;40040;42.706;23.372;2023-02-28T08:55:00;146577.34;;;9.75;100.00
6938;BME280;40040;42.706;23.372;2023-02-28T08:57:27;146573.66;;;9.73;100.00
6938;BME280;40040;42.706;23.372;2023-02-28T08:59:55;146484.91;;;9.37;100.00
6938;BME280;40040;42.706;23.372;2023-02-28T09:02:22;146558.88;;;9.67;100.00
6938;BME280;40040;42.706;23.372;2023-02-28T09:04:49;146567.50;;;9.71;100.00
6938;BME280;40040;42.706;23.372;2023-02-28T09:07:16;146585.97;;;9.78;100.00
6938;BME280;40040;42.706;23.372;2023-02-28T09:09:43;146589.66;;;9.80;100.00
6938;BME280;40040;42.706;23.372;2023-02-28T09:12:20;146604.47;;;9.86;100.00
6938;BME280;40040;42.706;23.372;2023-02-28T09:14:47;146574.91;;;9.74;100.00
6938;BME280;40040;42.706;23.372;2023-02-28T09:17:15;146615.56;;;9.90;100.00
6938;BME280;40040;42.706;23.372;2023-02-28T09:19:42;146590.91;;;9.80;100.00
6938;BME280;40040;42.706;23.372;2023-02-28T09:22:09;146616.81;;;9.91;100.00
6938;BME280;40040;42.706;23.372;2023-02-28T09:24:37;146639.00;;;10.00;100.00
6938;BME280;40040;42.706;23.372;2023-02-28T09:27:04;146621.75;;;9.93;100.00
6938;BME280;40040;42.706;23.372;2023-02-28T09:29:31;146599.53;;;9.84;100.00
6938;BME280;40040;42.706;23.372;2023-02-28T09:31:58;146476.28;;;9.34;100.00
6938;BME280;40040;42.706;23.372;2023-02-28T09:34:28;146620.50;;;9.92;100.00
6938;BME280;40040;42.706;23.372;2023-02-28T09:36:56;146629.13;;;9.96;100.00
6938;BME280;40040;42.706;23.372;2023-02-28T09:39:23;146562.56;;;9.69;100.00
6938;BME280;40040;42.706;23.372;2023-02-28T09:41:53;146616.81;;;9.91;100.00
6938;BME280;40040;42.706;23.372;2023-02-28T09:44:26;146643.97;;;10.02;100.00
6938;BME280;40040;42.706;23.372;2023-02-28T09:46:57;146611.88;;;9.89;100.00
6938;BME280;40040;42.706;23.372;2023-02-28T09:49:33;146627.94;;;9.95;100.00
6938;BME280;40040;42.706;23.372;2023-02-28T09:52:04;146643.97;;;10.02;100.00
6938;BME280;40040;42.706;23.372;2023-02-28T09:54:35;146653.78;;;10.06;100.00
6938;BME280;40040;42.706;23.372;2023-02-28T09:57:07;146652.59;;;10.05;100.00
6938;BME280;40040;42.706;23.372;2023-02-28T09:59:43;146676.03;;;10.15;100.00
6938;BME280;40040;42.706;23.372;2023-02-28T10:02:21;146715.53;;;10.31;100.00
6938;BME280;40040;42.706;23.372;2023-02-28T10:04:59;146719.22;;;10.33;100.00
6938;BME280;40040;42.706;23.372;2023-02-28T10:07:41;146767.34;;;10.52;100.00
6938;BME280;40040;42.706;23.372;2023-02-28T10:10:19;146794.50;;;10.63;100.00
6938;BME280;40040;42.706;23.372;2023-02-28T10:12:49;146905.56;;;11.08;100.00
6938;BME280;40040;42.706;23.372;2023-02-28T10:15:21;146922.84;;;11.15;100.00
6938;BME280;40040;42.706;23.372;2023-02-28T10:17:53;146861.13;;;10.90;100.00
6938;BME280;40040;42.706;23.372;2023-02-28T10:20:24;146926.53;;;11.17;100.00
6938;BME280;40040;42.706;23.372;2023-02-28T10:22:58;146943.81;;;11.24;100.00
6938;BME280;40040;42.706;23.372;2023-02-28T10:25:33;147001.81;;;11.48;100.00
6938;BME280;40040;42.706;23.372;2023-02-28T10:28:05;146956.16;;;11.29;100.00
6938;BME280;40040;42.706;23.372;2023-02-28T10:30:37;146935.19;;;11.20;100.00
6938;BME280;40040;42.706;23.372;2023-02-28T10:33:08;146909.25;;;11.10;100.00
6938;BME280;40040;42.706;23.372;2023-02-28T10:35:38;146924.03;;;11.16;100.00
6938;BME280;40040;42.706;23.372;2023-02-28T10:38:15;146966.03;;;11.33;100.00
6938;BME280;40040;42.706;23.372;2023-02-28T10:40:42;146943.81;;;11.24;100.00
6938;BME280;40040;42.706;23.372;2023-02-28T10:43:19;146994.41;;;11.45;100.00
6938;BME280;40040;42.706;23.372;2023-02-28T10:45:55;146979.59;;;11.38;100.00
6938;BME280;40040;42.706;23.372;2023-02-28T10:48:38;147041.34;;;11.64;100.00
6938;BME280;40040;42.706;23.372;2023-02-28T10:51:10;147093.25;;;11.85;100.00
6938;BME280;40040;42.706;23.372;2023-02-28T10:53:45;147093.25;;;11.85;100.00
6938;BME280;40040;42.706;23.372;2023-02-28T10:56:17;147117.94;;;11.95;100.00
6938;BME280;40040;42.706;23.372;2023-02-28T10:58:52;147115.50;;;11.94;100.00
6938;BME280;40040;42.706;23.372;2023-02-28T11:01:21;147184.66;;;12.22;100.00
6938;BME280;40040;42.706;23.372;2023-02-28T11:03:49;147162.44;;;12.13;100.00
6938;BME280;40040;42.706;23.372;2023-02-28T11:06:19;147147.59;;;12.07;100.00
6938;BME280;40040;42.706;23.372;2023-02-28T11:08:50;147232.81;;;12.41;100.00
6938;BME280;40040;42.706;23.372;2023-02-28T11:11:18;147288.41;;;12.64;100.00
6938;BME280;40040;42.706;23.372;2023-02-28T11:13:47;147253.81;;;12.50;100.00
6938;BME280;40040;42.706;23.372;2023-02-28T11:16:16;147276.06;;;12.59;100.00
6938;BME280;40040;42.706;23.372;2023-02-28T11:18:48;147246.41;;;12.47;100.00
6938;BME280;40040;42.706;23.372;2023-02-28T11:21:20;147251.38;;;12.49;100.00
6938;BME280;40040;42.706;23.372;2023-02-28T11:23:49;147195.78;;;12.26;100.00
6938;BME280;40040;42.706;23.372;2023-02-28T11:26:35;147231.63;;;12.41;100.00
6938;BME280;40040;42.706;23.372;2023-02-28T11:29:10;147153.78;;;12.09;100.00
6938;BME280;40040;42.706;23.372;2023-02-28T11:31:38;147164.88;;;12.14;100.00
6938;BME280;40040;42.706;23.372;2023-02-28T11:34:24;147231.63;;;12.41;100.00
6938;BME280;40040;42.706;23.372;2023-02-28T11:36:56;147234.06;;;12.42;100.00
6938;BME280;40040;42.706;23.372;2023-02-28T11:39:25;147253.81;;;12.50;100.00
6938;BME280;40040;42.706;23.372;2023-02-28T11:42:04;147232.81;;;12.41;100.00
6938;BME280;40040;42.706;23.372;2023-02-28T11:44:47;147258.75;;;12.52;100.00
6938;BME280;40040;42.706;23.372;2023-02-28T11:47:29;147167.38;;;12.15;100.00
6938;BME280;40040;42.706;23.372;2023-02-28T11:50:10;147252.63;;;12.50;100.00
6938;BME280;40040;42.706;23.372;2023-02-28T11:52:45;147263.72;;;12.54;100.00
6938;BME280;40040;42.706;23.372;2023-02-28T11:55:17;147215.50;;;12.34;100.00
6938;BME280;40040;42.706;23.372;2023-02-28T11:58:09;147324.28;;;12.79;100.00
6938;BME280;40040;42.706;23.372;2023-02-28T12:01:00;147371.22;;;12.98;100.00
6938;BME280;40040;42.706;23.372;2023-02-28T12:03:37;147258.75;;;12.52;100.00
6938;BME280;40040;42.706;23.372;2023-02-28T12:06:16;147241.47;;;12.45;100.00
6938;BME280;40040;42.706;23.372;2023-02-28T12:08:54;147282.25;;;12.62;100.00
6938;BME280;40040;42.706;23.372;2023-02-28T12:11:38;147382.38;;;13.02;100.00
6938;BME280;40040;42.706;23.372;2023-02-28T12:14:25;147369.97;;;12.97;100.00
6938;BME280;40040;42.706;23.372;2023-02-28T12:17:09;147388.59;;;13.05;100.00
6938;BME280;40040;42.706;23.372;2023-02-28T12:19:44;147365.06;;;12.95;100.00
6938;BME280;40040;42.706;23.372;2023-02-28T12:22:29;147327.97;;;12.80;100.00
6938;BME280;40040;42.706;23.372;2023-02-28T12:25:30;147298.31;;;12.68;100.00
6938;BME280;40040;42.706;23.372;2023-02-28T12:28:02;147278.56;;;12.60;100.00
6938;BME280;40040;42.706;23.372;2023-02-28T12:30:35;147257.56;;;12.52;100.00
6938;BME280;40040;42.706;23.372;2023-02-28T12:33:08;147246.41;;;12.47;100.00
6938;BME280;40040;42.706;23.372;2023-02-28T12:35:38;147271.13;;;12.57;100.00
6938;BME280;40040;42.706;23.372;2023-02-28T12:38:12;147279.75;;;12.61;100.00
6938;BME280;40040;42.706;23.372;2023-02-28T12:40:48;147261.25;;;12.53;100.00
6938;BME280;40040;42.706;23.372;2023-02-28T12:43:18;147224.16;;;12.38;100.00
6938;BME280;40040;42.706;23.372;2023-02-28T12:45:50;147257.56;;;12.52;100.00
6938;BME280;40040;42.706;23.372;2023-02-28T12:48:23;147222.97;;;12.37;100.00
6938;BME280;40040;42.706;23.372;2023-02-28T12:50:52;147199.47;;;12.28;100.00
6938;BME280;40040;42.706;23.372;2023-02-28T12:53:31;147169.81;;;12.16;100.00
6938;BME280;40040;42.706;23.372;2023-02-28T12:56:09;147147.59;;;12.07;100.00
6938;BME280;40040;42.706;23.372;2023-02-28T12:58:42;147085.84;;;11.82;100.00
6938;BME280;40040;42.706;23.372;2023-02-28T13:01:36;146922.84;;;11.15;100.00
6938;BME280;40040;42.706;23.372;2023-02-28T13:04:29;147108.06;;;11.91;100.00
6938;BME280;40040;42.706;23.372;2023-02-28T13:07:11;147051.28;;;11.68;100.00
6938;BME280;40040;42.706;23.372;2023-02-28T13:09:52;147127.84;;;11.99;100.00
6938;BME280;40040;42.706;23.372;2023-02-28T13:12:20;147135.22;;;12.02;100.00
6938;BME280;40040;42.706;23.372;2023-02-28T13:14:48;147113.00;;;11.93;100.00